Time;durP1;ratioP1;P1;durP2;ratioP2;P2;SDS_P1;SDS_P2;PMS_P1;PMS_P2;Temp;Humidity;BMP_temperature;BMP_pressure;BME280_temperature;BME280_humidity;BME280_pressure;Samples;Min_cycle;Max_cycle;Signal;HPM_P1;HPM_P2
2022/08/20 00:00:13;;;;;;;4.88;2.30;;;19.70;99.90;;;;;;6306749;22;20074;-89
2022/08/20 00:02:47;;;;;;;5.53;3.05;;;19.70;99.90;;;;;;6306763;22;20076;-88
2022/08/20 00:05:15;;;;;;;5.63;2.92;;;19.70;99.90;;;;;;6280849;22;20027;-86
2022/08/20 00:07:41;;;;;;;6.20;2.53;;;19.70;99.90;;;;;;6306976;22;20019;-89
2022/08/20 00:10:08;;;;;;;6.07;3.10;;;19.60;99.90;;;;;;6306562;22;20030;-90
2022/08/20 00:12:35;;;;;;;5.78;2.50;;;19.60;99.90;;;;;;6306916;22;20038;-88
2022/08/20 00:15:02;;;;;;;4.60;2.30;;;19.60;99.90;;;;;;6306553;22;20027;-88
2022/08/20 00:17:34;;;;;;;6.20;2.85;;;19.60;99.90;;;;;;6280645;22;20055;-89
2022/08/20 00:20:00;;;;;;;5.35;2.67;;;19.50;99.90;;;;;;6308043;22;20399;-88
2022/08/20 00:22:26;;;;;;;7.50;3.13;;;19.50;99.90;;;;;;6306292;22;20019;-87
2022/08/20 00:24:52;;;;;;;;;;;19.50;99.90;;;;;;6306722;22;20098;-87
2022/08/20 00:27:18;;;;;;;4.68;2.30;;;19.50;99.90;;;;;;6280714;22;19961;-89
2022/08/20 00:29:43;;;;;;;4.45;2.20;;;19.50;99.90;;;;;;6306737;22;20023;-88
2022/08/20 00:32:09;;;;;;;4.90;2.63;;;19.50;99.90;;;;;;6280559;22;20059;-87
2022/08/20 00:34:35;;;;;;;7.38;2.67;;;19.50;99.90;;;;;;6306582;22;20031;-88
2022/08/20 00:37:16;;;;;;;4.88;2.30;;;19.50;99.90;;;;;;6306655;22;20015;-87
2022/08/20 00:39:41;;;;;;;5.05;2.50;;;19.50;99.90;;;;;;6281038;22;20019;-93
2022/08/20 00:42:07;;;;;;;6.30;2.45;;;19.40;99.90;;;;;;6306913;22;20022;-92
2022/08/20 00:44:33;;;;;;;4.95;2.90;;;19.40;99.90;;;;;;6307946;22;20026;-94
2022/08/20 00:46:59;;;;;;;5.93;2.63;;;19.40;99.90;;;;;;6306666;22;20118;-88
2022/08/20 00:49:28;;;;;;;4.50;2.47;;;19.40;99.90;;;;;;6306153;22;20069;-86
2022/08/20 00:52:18;;;;;;;5.53;2.60;;;19.40;99.90;;;;;;6306869;22;20023;-91
2022/08/20 00:55:40;;;;;;;4.88;2.10;;;19.40;99.90;;;;;;6307372;22;20046;-93
2022/08/20 06:02:00;;;;;;;1.85;0.80;;;17.00;99.90;;;;;;6279201;22;20079;-92
2022/08/20 06:43:07;;;;;;;3.08;0.65;;;21.50;99.90;;;;;;6304011;22;20019;-91
2022/08/20 07:49:56;;;;;;;1.48;0.50;;;20.20;99.90;;;;;;6309646;22;20375;-92
2022/08/20 10:02:01;;;;;;;1.85;0.30;;;20.60;99.90;;;;;;6311376;22;20018;-95
2022/08/20 10:04:29;;;;;;;3.10;0.70;;;20.60;99.90;;;;;;6283273;22;20437;-95
2022/08/20 10:12:06;;;;;;;1.13;0.22;;;20.60;99.90;;;;;;6310505;22;20019;-93
2022/08/20 10:14:32;;;;;;;;;;;20.70;99.90;;;;;;6258453;22;20023;-93
2022/08/20 22:17:17;;;;;;;6.72;2.85;;;17.20;99.90;;;;;;6310331;22;20039;-92
2022/08/20 22:47:13;;;;;;;2.80;0.98;;;16.90;99.90;;;;;;6344820;22;20019;-95
2022/08/20 22:49:40;;;;;;;3.88;1.23;;;16.90;99.90;;;;;;6292092;22;20023;-93
2022/08/20 22:52:07;;;;;;;4.43;1.15;;;16.90;99.90;;;;;;6288984;22;20452;-94
2022/08/20 22:54:34;;;;;;;5.40;1.60;;;16.80;99.90;;;;;;6289333;22;20029;-93
2022/08/20 22:57:22;;;;;;;2.78;1.50;;;16.80;99.90;;;;;;6295036;22;20025;-91
2022/08/20 22:59:53;;;;;;;2.55;0.95;;;16.80;99.90;;;;;;6326777;22;20058;-91
2022/08/20 23:12:44;;;;;;;4.13;1.23;;;16.80;99.90;;;;;;6340396;22;20450;-91
2022/08/20 23:18:33;;;;;;;1.95;0.90;;;16.90;99.90;;;;;;6290781;22;20057;-90
2022/08/20 23:20:59;;;;;;;;;;;16.90;99.90;;;;;;6288083;22;20058;-91
2022/08/20 23:23:43;;;;;;;2.75;1.02;;;17.00;99.90;;;;;;6288287;22;19941;-93
2022/08/20 23:26:12;;;;;;;2.67;1.20;;;17.10;99.90;;;;;;6313128;22;20481;-90
2022/08/20 23:28:38;;;;;;;4.35;1.45;;;17.00;99.90;;;;;;6288008;22;20026;-93
2022/08/20 23:31:04;;;;;;;3.22;1.08;;;17.00;99.90;;;;;;6287838;22;20025;-92
2022/08/20 23:33:30;;;;;;;2.85;1.30;;;17.00;99.90;;;;;;6312779;22;20040;-92
2022/08/20 23:36:00;;;;;;;1.92;0.80;;;17.00;99.90;;;;;;6287458;22;20014;-91
2022/08/20 23:38:26;;;;;;;3.60;1.30;;;17.00;99.90;;;;;;6287295;22;20015;-90
2022/08/20 23:40:51;;;;;;;3.05;1.13;;;17.00;99.90;;;;;;6287421;22;20482;-91
2022/08/20 23:43:17;;;;;;;3.53;1.00;;;16.90;99.90;;;;;;6299566;22;20015;-90
2022/08/20 23:45:44;;;;;;;3.38;1.30;;;16.80;99.90;;;;;;6301569;22;20015;-92
2022/08/20 23:48:09;;;;;;;;;;;16.70;99.90;;;;;;6297678;22;20025;-92
2022/08/20 23:50:36;;;;;;;2.55;1.17;;;16.60;99.90;;;;;;6289165;22;19914;-92
2022/08/20 23:53:03;;;;;;;;;;;16.60;99.90;;;;;;6287900;22;20071;-93
2022/08/20 23:55:28;;;;;;;3.00;1.10;;;16.50;99.90;;;;;;6287603;22;19961;-92
2022/08/20 23:57:54;;;;;;;2.80;1.20;;;16.40;99.90;;;;;;6287295;22;20669;-92
